Time;durP1;ratioP1;P1;durP2;ratioP2;P2;SDS_P1;SDS_P2;PMS_P1;PMS_P2;Temp;Humidity;BMP_temperature;BMP_pressure;BME280_temperature;BME280_humidity;BME280_pressure;Samples;Min_cycle;Max_cycle;Signal;HPM_P1;HPM_P2
2023/10/20 00:00:39;;;;;;;14.23;4.18;;;;;;;23.27;66.08;95179.09;5093743;28;20028;-27
2023/10/20 00:03:08;;;;;;;16.98;4.07;;;;;;;23.39;65.50;95183.06;5101448;28;20024;-27
2023/10/20 00:05:34;;;;;;;13.90;3.80;;;;;;;23.56;64.86;95175.13;5093954;28;20027;-27
2023/10/20 00:08:00;;;;;;;19.25;3.63;;;;;;;23.27;65.79;95177.06;5093625;28;20020;-27
2023/10/20 00:10:26;;;;;;;10.57;3.53;;;;;;;23.45;64.83;95166.34;5094103;28;20477;-26
2023/10/20 00:12:52;;;;;;;10.15;3.88;;;;;;;23.29;65.34;95168.97;5093653;28;20105;-28
2023/10/20 00:15:17;;;;;;;15.60;3.50;;;;;;;23.13;66.73;95164.59;5103555;28;20352;-27
2023/10/20 00:17:43;;;;;;;18.73;3.83;;;;;;;23.45;65.25;95171.88;5102486;28;20114;-27
2023/10/20 00:20:12;;;;;;;17.05;3.97;;;;;;;23.01;66.75;95185.50;5098002;28;20020;-27
2023/10/20 00:22:38;;;;;;;15.40;4.47;;;;;;;23.21;66.27;95173.72;5097452;28;20145;-27
2023/10/20 00:25:04;;;;;;;16.45;5.03;;;;;;;23.22;66.26;95171.69;5097515;28;20111;-27
2023/10/20 00:27:29;;;;;;;14.15;4.10;;;;;;;23.08;66.94;95178.56;5105137;28;20435;-26
2023/10/20 00:29:55;;;;;;;14.63;4.00;;;;;;;23.31;65.87;95179.50;5104686;28;20024;-27
2023/10/20 00:32:20;;;;;;;11.32;4.75;;;;;;;23.46;65.26;95176.88;5097576;28;20023;-28
2023/10/20 00:34:46;;;;;;;15.23;4.35;;;;;;;23.08;66.48;95173.03;5097542;28;20047;-27
2023/10/20 00:37:11;;;;;;;15.85;4.45;;;;;;;22.93;66.87;95165.34;5097216;28;20031;-26
2023/10/20 00:39:37;;;;;;;18.83;4.25;;;;;;;23.32;65.51;95180.25;5097510;28;20023;-27
2023/10/20 00:42:03;;;;;;;17.63;4.57;;;;;;;23.26;65.44;95181.13;5097532;28;20518;-28
2023/10/20 00:44:29;;;;;;;17.08;4.20;;;;;;;23.31;64.88;95176.00;5097217;28;20307;-27
2023/10/20 00:46:55;;;;;;;17.33;4.53;;;;;;;23.17;65.79;95191.94;5105020;28;20528;-28
2023/10/20 00:49:21;;;;;;;16.40;3.92;;;;;;;23.18;65.17;95183.09;5097208;28;20020;-27
2023/10/20 00:51:46;;;;;;;13.88;4.20;;;;;;;23.12;65.90;95187.28;5096773;28;20462;-27
2023/10/20 00:54:13;;;;;;;18.77;4.82;;;;;;;23.01;65.81;95179.22;5096914;28;20387;-27
2023/10/20 00:56:43;;;;;;;17.30;3.83;;;;;;;23.21;64.88;95176.47;5097288;28;20023;-27
2023/10/20 00:59:08;;;;;;;14.32;4.43;;;;;;;23.10;65.37;95181.53;5097207;28;20016;-26
2023/10/20 01:01:35;;;;;;;13.35;3.58;;;;;;;23.30;64.07;95169.72;5096646;28;20077;-27
2023/10/20 01:04:01;;;;;;;17.30;4.90;;;;;;;23.10;65.03;95171.22;5097089;28;20027;-26
2023/10/20 01:06:27;;;;;;;14.85;4.35;;;;;;;23.05;64.88;95163.06;5096694;28;20058;-27
2023/10/20 01:08:58;;;;;;;14.43;3.90;;;;;;;23.17;64.38;95167.78;5096902;28;20055;-27
2023/10/20 01:11:24;;;;;;;18.52;4.05;;;;;;;23.27;63.53;95163.25;5096984;28;20426;-27
2023/10/20 01:13:50;;;;;;;17.35;4.00;;;;;;;23.37;62.95;95166.25;5096554;28;20064;-26
2023/10/20 01:16:16;;;;;;;16.80;4.88;;;;;;;23.26;63.31;95166.56;5104304;28;20028;-27
2023/10/20 01:18:42;;;;;;;13.63;4.10;;;;;;;23.34;62.95;95167.38;5096577;28;20375;-28
2023/10/20 01:21:08;;;;;;;14.38;4.35;;;;;;;23.36;62.17;95169.59;5096594;28;20024;-27
2023/10/20 01:23:33;;;;;;;14.40;3.70;;;;;;;23.17;62.76;95148.41;5096236;28;20020;-27
2023/10/20 01:25:58;;;;;;;12.40;3.88;;;;;;;23.43;61.78;95146.78;5097018;28;20031;-26
2023/10/20 01:28:24;;;;;;;17.50;3.85;;;;;;;23.39;61.56;95143.59;5096564;28;20035;-27
2023/10/20 01:30:50;;;;;;;14.15;3.45;;;;;;;23.35;61.81;95134.91;5095125;28;20028;-26
2023/10/20 01:33:15;;;;;;;14.65;3.60;;;;;;;23.37;61.73;95137.88;5096545;28;20024;-28
2023/10/20 01:35:41;;;;;;;11.48;3.83;;;;;;;23.20;61.90;95124.47;5096038;28;20115;-27
2023/10/20 01:38:06;;;;;;;22.00;4.30;;;;;;;23.22;61.49;95128.19;5096305;28;20106;-27
2023/10/20 01:40:31;;;;;;;11.65;3.38;;;;;;;23.29;61.08;95123.97;5096728;28;20385;-29
2023/10/20 01:42:57;;;;;;;11.15;3.30;;;;;;;23.32;60.98;95113.88;5096293;28;20020;-26
2023/10/20 01:45:23;;;;;;;15.50;3.95;;;;;;;23.26;60.90;95117.50;5095909;28;20020;-26
2023/10/20 01:47:49;;;;;;;10.65;3.53;;;;;;;23.27;60.59;95107.19;5103131;28;20020;-27
2023/10/20 01:50:15;;;;;;;15.73;3.65;;;;;;;23.20;60.91;95105.13;5095794;28;20024;-27
2023/10/20 01:52:41;;;;;;;13.57;4.03;;;;;;;23.36;60.00;95103.19;5095896;28;20130;-27
2023/10/20 01:55:07;;;;;;;13.32;3.55;;;;;;;23.27;60.41;95099.63;5096018;28;20052;-27
2023/10/20 01:57:32;;;;;;;10.93;3.30;;;;;;;23.21;59.81;95103.84;5095838;28;20101;-26
2023/10/20 01:59:59;;;;;;;12.32;3.03;;;;;;;23.29;59.33;95099.81;5095719;28;20492;-27
2023/10/20 02:02:24;;;;;;;18.20;3.88;;;;;;;23.34;59.31;95089.91;5095631;28;20095;-27
2023/10/20 02:04:49;;;;;;;12.77;3.60;;;;;;;23.39;58.67;95091.78;5095907;28;20076;-27
2023/10/20 02:07:15;;;;;;;11.65;3.42;;;;;;;23.23;58.22;95079.16;5095985;28;20084;-26
2023/10/20 02:09:40;;;;;;;14.88;3.60;;;;;;;23.16;58.41;95075.03;5095679;28;20376;-28
2023/10/20 02:12:07;;;;;;;16.90;3.30;;;;;;;23.23;57.52;95074.34;5102995;28;20459;-27
2023/10/20 02:14:33;;;;;;;18.60;3.90;;;;;;;23.37;57.11;95077.75;5095407;28;20540;-27
2023/10/20 02:16:58;;;;;;;13.18;3.22;;;;;;;23.20;57.14;95069.91;5095523;28;20060;-27
2023/10/20 02:19:23;;;;;;;15.10;4.25;;;;;;;23.25;55.99;95071.75;5095194;28;20019;-27
2023/10/20 02:21:49;;;;;;;15.48;3.05;;;;;;;23.22;55.93;95061.81;5095843;28;20046;-27
2023/10/20 02:24:14;;;;;;;14.85;3.33;;;;;;;23.38;56.18;95068.16;5103261;28;20390;-26
2023/10/20 02:26:40;;;;;;;11.48;3.08;;;;;;;23.35;55.19;95063.00;5095449;28;20027;-27
2023/10/20 02:29:06;;;;;;;13.93;3.35;;;;;;;23.31;55.42;95054.28;5095619;28;20016;-29
2023/10/20 02:31:31;;;;;;;13.63;3.50;;;;;;;23.28;55.92;95059.63;5102267;28;20028;-27
2023/10/20 02:33:57;;;;;;;16.58;3.47;;;;;;;23.41;55.78;95055.25;5095186;28;20016;-27
2023/10/20 02:36:22;;;;;;;9.02;2.75;;;;;;;23.37;55.72;95055.59;5095238;28;20048;-27
2023/10/20 02:38:53;;;;;;;11.80;3.80;;;;;;;23.35;56.07;95038.84;5095094;28;20016;-27
2023/10/20 02:41:19;;;;;;;20.52;3.65;;;;;;;23.44;55.48;95032.06;5095137;28;20452;-27
2023/10/20 02:43:45;;;;;;;13.23;3.50;;;;;;;23.34;56.38;95040.13;5102315;28;20020;-28
2023/10/20 02:46:12;;;;;;;15.57;4.25;;;;;;;23.42;55.87;95045.69;5094650;28;20099;-26
2023/10/20 02:48:38;;;;;;;14.55;3.45;;;;;;;23.25;56.27;95049.63;5094827;28;20080;-27
2023/10/20 02:51:09;;;;;;;13.90;3.55;;;;;;;23.22;56.59;95028.63;5095278;28;20024;-26
2023/10/20 02:53:35;;;;;;;13.77;3.35;;;;;;;23.38;56.42;95023.16;5095079;28;20044;-27
2023/10/20 02:56:01;;;;;;;21.25;3.60;;;;;;;23.33;56.72;95024.06;5094580;28;20027;-27
2023/10/20 02:58:27;;;;;;;12.95;3.22;;;;;;;23.22;57.28;95017.56;5093293;28;20043;-27
2023/10/20 03:00:54;;;;;;;12.75;3.05;;;;;;;23.42;57.07;95013.22;5094637;28;20020;-28
2023/10/20 03:03:19;;;;;;;17.77;4.00;;;;;;;23.28;57.29;94992.50;5094914;28;20019;-27
2023/10/20 03:05:45;;;;;;;11.18;3.90;;;;;;;23.48;56.94;94999.25;5094310;28;20031;-27
2023/10/20 03:08:11;;;;;;;14.13;3.83;;;;;;;23.37;57.42;94982.97;5094831;28;20012;-27
2023/10/20 03:10:38;;;;;;;15.85;3.70;;;;;;;23.42;57.31;94995.88;5094490;28;20104;-27
2023/10/20 03:13:04;;;;;;;12.98;4.32;;;;;;;23.41;57.39;94977.81;5094415;28;20035;-27
2023/10/20 03:15:33;;;;;;;16.10;4.00;;;;;;;23.37;57.71;94980.91;5094279;28;20016;-27
2023/10/20 03:17:59;;;;;;;18.25;3.70;;;;;;;23.40;57.36;94965.25;5094320;28;20028;-27
2023/10/20 03:20:28;;;;;;;14.40;4.15;;;;;;;23.48;55.87;94971.56;5094398;28;20043;-28
2023/10/20 03:22:57;;;;;;;13.75;3.45;;;;;;;23.17;56.57;94970.69;5094228;28;20467;-27
2023/10/20 03:25:22;;;;;;;16.92;3.60;;;;;;;23.39;55.23;94972.06;5092770;28;20376;-27
2023/10/20 03:27:48;;;;;;;18.30;4.25;;;;;;;23.46;54.36;94963.09;5094228;28;20020;-27
2023/10/20 03:30:15;;;;;;;14.18;3.40;;;;;;;23.24;54.76;94970.00;5094805;28;20102;-27
2023/10/20 03:32:41;;;;;;;13.02;3.45;;;;;;;23.40;54.98;94954.19;5094586;28;20024;-28
2023/10/20 03:35:07;;;;;;;13.35;3.85;;;;;;;23.28;54.28;94962.06;5094134;28;20491;-26
2023/10/20 03:37:34;;;;;;;14.52;3.42;;;;;;;23.47;53.89;94959.03;5094400;28;20024;-27
2023/10/20 03:40:00;;;;;;;13.70;3.83;;;;;;;23.54;54.20;94958.34;5093799;28;20030;-27
2023/10/20 03:42:26;;;;;;;20.17;4.35;;;;;;;23.24;55.37;94945.81;5093882;28;20497;-26
2023/10/20 03:44:51;;;;;;;15.95;4.00;;;;;;;23.53;55.49;94948.56;5093797;28;20028;-27
2023/10/20 03:47:17;;;;;;;16.45;3.45;;;;;;;23.46;56.08;94943.72;5094122;28;20012;-27
2023/10/20 03:49:43;;;;;;;15.55;3.45;;;;;;;23.41;56.46;94952.91;5092815;28;20028;-27
2023/10/20 03:52:11;;;;;;;13.40;3.50;;;;;;;23.38;57.14;94946.44;5093072;28;20044;-27
2023/10/20 03:54:38;;;;;;;12.77;3.38;;;;;;;23.18;58.50;94936.94;5093815;28;20024;-27
2023/10/20 03:57:04;;;;;;;15.88;4.00;;;;;;;23.32;58.56;94940.34;5093596;28;20069;-27
2023/10/20 03:59:30;;;;;;;16.13;5.00;;;;;;;23.37;58.67;94935.94;5093966;28;20027;-27
2023/10/20 04:01:56;;;;;;;23.38;4.13;;;;;;;23.36;59.01;94943.50;5093664;28;20086;-27
2023/10/20 04:04:22;;;;;;;12.63;3.88;;;;;;;23.29;59.60;94944.19;5107168;28;20039;-27
2023/10/20 04:06:49;;;;;;;19.08;4.53;;;;;;;23.28;59.58;94937.91;5093780;28;20039;-27
2023/10/20 04:09:17;;;;;;;14.55;4.10;;;;;;;23.41;59.43;94934.28;5093442;28;20027;-27
2023/10/20 04:11:43;;;;;;;17.77;4.32;;;;;;;23.35;60.03;94930.94;5093608;28;20024;-26
2023/10/20 04:14:09;;;;;;;13.88;4.43;;;;;;;23.34;60.69;94937.75;5093719;28;20486;-27
2023/10/20 04:16:41;;;;;;;14.27;3.92;;;;;;;23.38;60.45;94935.38;5100985;28;20607;-26
2023/10/20 04:19:09;;;;;;;17.73;4.50;;;;;;;23.41;60.55;94933.53;5093689;28;20020;-27
2023/10/20 04:21:44;;;;;;;20.95;5.38;;;;;;;23.27;61.27;94928.13;5093352;28;20065;-27
2023/10/20 04:24:10;;;;;;;19.80;4.43;;;;;;;23.41;61.04;94944.59;5093103;28;20020;-27
2023/10/20 04:26:43;;;;;;;19.33;4.10;;;;;;;23.32;61.39;94947.88;5093578;28;20104;-27
2023/10/20 05:01:30;;;;;;;20.65;4.95;;;;;;;23.34;60.31;94865.09;5093074;28;20024;-27
2023/10/20 05:04:03;;;;;;;19.63;4.82;;;;;;;23.32;60.74;94865.66;5095639;28;20024;-28
2023/10/20 05:06:40;;;;;;;19.85;4.85;;;;;;;23.37;60.33;94856.44;5097261;28;20028;-27
2023/10/20 05:09:09;;;;;;;19.15;4.32;;;;;;;23.26;60.67;94860.28;5096919;28;20029;-28
2023/10/20 05:11:34;;;;;;;12.70;5.05;;;;;;;23.25;60.35;94844.97;5097125;28;20020;-27
2023/10/20 05:14:00;;;;;;;14.82;4.60;;;;;;;23.43;59.82;94853.50;5097054;28;20035;-27
2023/10/20 05:16:28;;;;;;;14.40;4.45;;;;;;;23.34;59.82;94865.84;5096462;28;20027;-27
2023/10/20 05:18:55;;;;;;;17.42;4.78;;;;;;;23.37;59.37;94881.31;5096588;28;20375;-27
2023/10/20 05:21:21;;;;;;;18.90;4.40;;;;;;;23.47;59.26;94859.44;5096664;28;20478;-27
2023/10/20 05:23:47;;;;;;;16.63;4.38;;;;;;;23.39;58.99;94867.69;5095419;28;20054;-27
2023/10/20 05:26:13;;;;;;;14.45;4.60;;;;;;;23.45;58.75;94856.47;5096849;28;20019;-28
2023/10/20 05:28:38;;;;;;;10.80;4.28;;;;;;;23.20;59.31;94856.94;5097452;28;20016;-27
2023/10/20 05:31:04;;;;;;;12.07;4.20;;;;;;;23.43;58.60;94842.44;5096684;28;20027;-26
2023/10/20 05:33:29;;;;;;;15.10;4.35;;;;;;;23.28;58.45;94848.66;5096206;28;20038;-26
2023/10/20 05:36:05;;;;;;;18.02;4.93;;;;;;;23.38;58.14;94840.56;5096526;28;20028;-26
2023/10/20 05:38:31;;;;;;;18.70;5.05;;;;;;;23.37;57.95;94842.59;5096459;28;20073;-28
2023/10/20 05:40:58;;;;;;;19.30;4.00;;;;;;;23.40;58.01;94838.72;5096666;28;20061;-28
2023/10/20 05:43:24;;;;;;;13.98;4.20;;;;;;;23.48;57.43;94833.25;5096244;28;20017;-27
2023/10/20 05:45:50;;;;;;;16.25;3.50;;;;;;;23.47;57.62;94826.97;5095891;28;20023;-26
2023/10/20 05:48:16;;;;;;;15.57;4.50;;;;;;;23.47;57.44;94834.53;5096095;28;20012;-27
2023/10/20 05:50:41;;;;;;;18.35;4.80;;;;;;;23.45;57.46;94846.13;5096132;28;20442;-27
2023/10/20 05:53:07;;;;;;;20.40;4.65;;;;;;;23.53;56.77;94810.94;5095944;28;20051;-27
2023/10/20 05:55:33;;;;;;;24.23;4.03;;;;;;;23.55;56.35;94821.47;5095956;28;20020;-27
2023/10/20 05:58:01;;;;;;;15.88;4.00;;;;;;;23.40;56.94;94843.53;5110482;28;20024;-27
2023/10/20 06:00:26;;;;;;;22.55;4.15;;;;;;;23.57;56.12;94835.50;5095592;28;20016;-27
2023/10/20 06:02:52;;;;;;;16.50;3.42;;;;;;;23.34;56.74;94815.31;5095581;28;20024;-26
2023/10/20 06:05:18;;;;;;;20.95;4.07;;;;;;;23.44;56.71;94810.72;5095924;28;20028;-27
2023/10/20 06:07:44;;;;;;;23.65;5.47;;;;;;;23.49;56.57;94790.44;5095271;28;20032;-27
2023/10/20 06:10:13;;;;;;;21.00;4.88;;;;;;;23.39;56.85;94792.25;5098172;28;20016;-27
2023/10/20 06:12:39;;;;;;;16.63;4.05;;;;;;;23.53;56.18;94780.50;5100153;28;20051;-27
2023/10/20 06:15:08;;;;;;;19.55;3.58;;;;;;;23.38;56.62;94771.41;5094926;28;20487;-27
2023/10/20 06:17:34;;;;;;;23.20;4.80;;;;;;;23.29;56.82;94787.25;5095782;28;20020;-27
2023/10/20 06:20:05;;;;;;;23.52;4.82;;;;;;;23.47;56.20;94801.31;5095187;28;20413;-27
2023/10/20 06:22:31;;;;;;;23.27;4.82;;;;;;;23.52;55.67;94794.88;5095675;28;20042;-27
2023/10/20 06:24:58;;;;;;;26.58;5.22;;;;;;;23.52;55.64;94794.88;5095671;28;20020;-28
2023/10/20 06:27:23;;;;;;;19.40;3.60;;;;;;;23.59;55.59;94794.91;5095131;28;20122;-27
2023/10/20 06:29:56;;;;;;;21.92;4.75;;;;;;;23.56;55.33;94795.28;5094523;28;20107;-27
2023/10/20 06:34:47;;;;;;;23.43;4.50;;;;;;;23.16;56.16;94781.88;5095114;28;19915;-26
2023/10/20 06:37:22;;;;;;;24.73;4.65;;;;;;;23.26;56.01;94776.56;5095368;28;20321;-27
2023/10/20 06:39:47;;;;;;;24.27;4.53;;;;;;;23.37;56.07;94773.44;5095268;28;20024;-27
2023/10/20 06:42:13;;;;;;;22.45;5.18;;;;;;;23.42;55.92;94760.72;5094903;28;20068;-27
2023/10/20 06:44:38;;;;;;;23.42;3.95;;;;;;;23.50;55.63;94759.47;5094628;28;20110;-27
2023/10/20 06:47:04;;;;;;;21.02;4.38;;;;;;;23.43;55.58;94754.66;5094915;28;20052;-27
2023/10/20 06:49:32;;;;;;;20.88;4.10;;;;;;;23.52;55.74;94747.84;5094363;28;20042;-27
2023/10/20 06:52:01;;;;;;;24.42;4.20;;;;;;;23.46;55.94;94752.81;5094426;27;20507;-27
2023/10/20 06:54:26;;;;;;;16.15;4.55;;;;;;;23.47;55.45;94743.22;5095236;28;20055;-27
2023/10/20 06:56:52;;;;;;;21.05;4.32;;;;;;;23.56;55.13;94753.75;5094593;28;20042;-26
2023/10/20 06:59:17;;;;;;;18.33;4.13;;;;;;;23.58;55.17;94734.59;5094799;28;20024;-27
2023/10/20 07:01:43;;;;;;;20.77;3.85;;;;;;;23.45;55.06;94731.97;5094596;28;20418;-27
2023/10/20 07:04:09;;;;;;;14.77;3.40;;;;;;;23.50;55.13;94731.03;5094497;28;20069;-27
2023/10/20 07:06:36;;;;;;;20.40;4.32;;;;;;;23.44;55.39;94728.47;5094727;28;20031;-28
2023/10/20 07:09:11;;;;;;;21.90;3.90;;;;;;;23.54;55.70;94731.44;5094634;28;20016;-27
2023/10/20 07:11:37;;;;;;;15.77;3.88;;;;;;;23.76;55.27;94716.09;5094966;28;20032;-27
2023/10/20 07:14:04;;;;;;;18.63;4.50;;;;;;;23.16;56.35;94721.03;5094498;28;20483;-26
2023/10/20 07:16:30;;;;;;;15.50;4.85;;;;;;;23.60;54.93;94718.91;5094503;28;20112;-27
2023/10/20 07:18:55;;;;;;;19.90;3.97;;;;;;;23.83;54.43;94707.81;5093594;28;20451;-27
2023/10/20 07:21:21;;;;;;;15.02;3.75;;;;;;;23.60;55.12;94707.09;5094782;28;20451;-27
2023/10/20 07:23:46;;;;;;;17.27;3.70;;;;;;;23.72;55.29;94710.22;5101270;28;20027;-27
2023/10/20 07:26:13;;;;;;;15.88;3.47;;;;;;;23.67;55.53;94711.16;5093468;28;20072;-27
2023/10/20 07:28:38;;;;;;;17.23;3.97;;;;;;;23.80;55.13;94700.63;5094179;28;20386;-27
2023/10/20 07:31:14;;;;;;;14.45;4.22;;;;;;;23.63;55.16;94703.19;5093835;28;20027;-27
2023/10/20 07:33:40;;;;;;;16.40;4.07;;;;;;;23.78;54.82;94705.97;5094223;28;20032;-27
2023/10/20 07:36:06;;;;;;;16.83;4.00;;;;;;;23.77;54.65;94696.19;5092930;28;20094;-28
2023/10/20 07:38:31;;;;;;;16.88;4.25;;;;;;;23.64;54.86;94688.06;5093771;28;20463;-29
2023/10/20 07:41:04;;;;;;;18.55;3.55;;;;;;;23.69;54.59;94689.94;5093885;28;20099;-28
2023/10/20 07:43:30;;;;;;;21.98;4.13;;;;;;;23.81;54.59;94677.19;5093910;28;20097;-27
2023/10/20 07:45:55;;;;;;;24.17;4.35;;;;;;;23.77;55.09;94681.59;5094482;28;20757;-27
2023/10/20 07:48:21;;;;;;;18.70;4.30;;;;;;;23.76;54.89;94691.19;5093657;28;20045;-27
2023/10/20 07:50:46;;;;;;;21.27;4.80;;;;;;;23.68;55.06;94696.75;5094008;28;20030;-26
2023/10/20 07:53:12;;;;;;;15.55;3.92;;;;;;;23.72;55.14;94688.81;5093629;28;20506;-29
2023/10/20 07:55:37;;;;;;;18.27;4.18;;;;;;;23.68;55.62;94701.56;5093890;28;20115;-27
2023/10/20 07:58:03;;;;;;;17.52;3.60;;;;;;;23.72;55.48;94701.94;5093576;28;20016;-28
2023/10/20 08:00:29;;;;;;;19.80;4.03;;;;;;;23.84;54.57;94695.44;5093483;28;20013;-27
2023/10/20 08:02:55;;;;;;;18.92;4.40;;;;;;;23.70;54.31;94687.91;5100714;28;20049;-27
2023/10/20 08:05:24;;;;;;;21.25;3.75;;;;;;;23.52;54.53;94695.28;5097425;28;20020;-28
2023/10/20 08:07:50;;;;;;;25.42;4.60;;;;;;;23.80;54.09;94720.00;5095983;28;20020;-28
2023/10/20 08:10:15;;;;;;;23.20;4.70;;;;;;;23.48;54.71;94711.50;5094067;28;20026;-26
2023/10/20 08:12:41;;;;;;;30.40;5.88;;;;;;;23.73;54.15;94723.50;5093472;28;20024;-26
2023/10/20 08:15:08;;;;;;;24.30;5.18;;;;;;;23.57;54.96;94719.28;5093679;28;20067;-27
2023/10/20 08:17:33;;;;;;;27.58;4.10;;;;;;;23.61;54.95;94703.03;5093336;28;20456;-27
2023/10/20 08:19:59;;;;;;;27.77;4.20;;;;;;;23.58;54.95;94720.75;5093667;28;20032;-27
2023/10/20 08:22:24;;;;;;;22.95;4.00;;;;;;;23.71;54.58;94712.25;5100951;28;20058;-26
2023/10/20 08:24:51;;;;;;;26.45;4.85;;;;;;;23.74;54.83;94711.13;5093359;28;20419;-27
2023/10/20 08:27:18;;;;;;;25.00;5.88;;;;;;;23.80;54.54;94720.00;5093515;28;20103;-28
2023/10/20 08:29:48;;;;;;;22.15;4.25;;;;;;;23.53;55.07;94703.03;5093479;28;20528;-27
2023/10/20 08:32:13;;;;;;;28.10;4.53;;;;;;;23.53;55.14;94685.69;5093571;28;20028;-27
2023/10/20 08:34:39;;;;;;;20.92;4.43;;;;;;;23.76;54.71;94680.13;5093855;28;20027;-28
2023/10/20 08:37:04;;;;;;;20.55;4.85;;;;;;;23.84;54.43;94678.84;5094811;28;20475;-26
2023/10/20 08:39:30;;;;;;;25.58;4.90;;;;;;;23.63;54.85;94665.19;5097544;28;20024;-27
2023/10/20 08:41:58;;;;;;;28.42;4.72;;;;;;;23.50;55.54;94654.31;5097015;28;20080;-27
2023/10/20 08:44:24;;;;;;;26.67;5.30;;;;;;;23.62;55.36;94649.88;5097491;28;20024;-27
2023/10/20 08:46:51;;;;;;;28.77;5.15;;;;;;;23.79;55.01;94652.09;5097438;28;20051;-27
2023/10/20 08:49:18;;;;;;;29.67;5.05;;;;;;;23.74;55.14;94647.47;5097462;28;20043;-29
2023/10/20 08:51:47;;;;;;;35.05;5.90;;;;;;;23.77;55.03;94646.38;5097124;28;20403;-26
2023/10/20 08:54:13;;;;;;;26.52;4.45;;;;;;;23.97;54.50;94661.28;5096930;28;20027;-26
2023/10/20 08:56:40;;;;;;;23.40;4.38;;;;;;;23.77;55.00;94653.94;5096919;28;20028;-27
2023/10/20 08:59:05;;;;;;;32.67;7.18;;;;;;;23.87;54.51;94671.44;5096944;28;20031;-27
2023/10/20 09:01:32;;;;;;;29.98;4.82;;;;;;;24.00;53.93;94668.44;5097048;28;20380;-27
2023/10/20 09:03:59;;;;;;;24.10;4.30;;;;;;;24.10;54.02;94674.16;5096908;28;20020;-26
2023/10/20 09:06:26;;;;;;;32.33;6.03;;;;;;;23.94;54.08;94668.66;5096690;28;20116;-27
2023/10/20 09:08:51;;;;;;;24.30;4.47;;;;;;;24.06;53.78;94657.94;5096749;28;20452;-27
2023/10/20 09:11:25;;;;;;;25.80;5.55;;;;;;;24.10;53.90;94679.72;5104587;28;20027;-26
2023/10/20 09:13:50;;;;;;;21.48;4.93;;;;;;;24.07;54.23;94666.97;5096529;28;20051;-27
2023/10/20 09:16:16;;;;;;;25.52;4.05;;;;;;;23.98;54.42;94671.06;5097360;28;20046;-26
2023/10/20 09:18:53;;;;;;;33.00;4.78;;;;;;;23.92;54.50;94665.72;5103884;28;20032;-27
2023/10/20 09:21:21;;;;;;;28.90;5.68;;;;;;;24.04;54.19;94643.16;5096701;28;20035;-26
2023/10/20 09:24:04;;;;;;;35.65;5.80;;;;;;;24.11;53.87;94642.41;5096431;28;20023;-27
2023/10/20 09:26:31;;;;;;;;;;;;;;;24.00;53.68;94644.28;5104508;28;20028;-27
2023/10/20 09:28:57;;;;;;;28.30;4.07;;;;;;;24.11;53.36;94636.88;5102483;28;19953;-27
2023/10/20 09:31:24;;;;;;;27.20;6.05;;;;;;;23.86;53.68;94640.25;5096550;28;20020;-28
2023/10/20 09:33:50;;;;;;;20.48;5.07;;;;;;;24.05;53.45;94641.88;5096457;28;20024;-26
2023/10/20 09:36:16;;;;;;;33.03;4.97;;;;;;;24.05;53.13;94622.47;5096311;28;20425;-27
2023/10/20 09:38:45;;;;;;;31.83;5.78;;;;;;;24.01;53.44;94633.94;5096118;28;20031;-27
2023/10/20 09:41:17;;;;;;;25.48;4.90;;;;;;;23.83;53.54;94638.59;5096386;28;20020;-26
2023/10/20 09:43:53;;;;;;;24.88;4.50;;;;;;;23.96;52.95;94635.63;5097084;28;20020;-28
2023/10/20 09:46:49;;;;;;;36.72;4.78;;;;;;;23.76;53.99;94658.72;5099827;28;20022;-27
2023/10/20 09:49:20;;;;;;;23.20;4.05;;;;;;;24.00;53.26;94652.56;5095488;28;20020;-27
2023/10/20 09:51:48;;;;;;;18.88;4.10;;;;;;;24.09;53.24;94650.53;5095770;28;20066;-28
2023/10/20 09:54:16;;;;;;;22.40;4.38;;;;;;;23.82;54.27;94639.91;5095888;28;20107;-28
2023/10/20 09:56:44;;;;;;;27.63;5.07;;;;;;;24.00;53.52;94649.06;5094703;28;20037;-27
2023/10/20 09:59:15;;;;;;;24.77;5.65;;;;;;;24.04;53.69;94645.94;5102654;27;20043;-27
2023/10/20 10:01:43;;;;;;;35.40;4.93;;;;;;;24.04;54.00;94635.59;5096205;28;20072;-27
2023/10/20 10:04:10;;;;;;;20.45;4.15;;;;;;;23.99;53.96;94640.03;5095765;28;20471;-27
2023/10/20 10:06:37;;;;;;;25.02;4.95;;;;;;;24.13;53.39;94639.81;5095790;28;20497;-27
2023/10/20 10:09:04;;;;;;;27.05;4.32;;;;;;;24.09;53.56;94647.78;5095839;28;20023;-27
2023/10/20 10:11:31;;;;;;;23.02;4.63;;;;;;;23.89;54.31;94660.53;5102775;28;20020;-27
2023/10/20 10:14:06;;;;;;;31.10;5.72;;;;;;;24.06;53.74;94668.25;5096115;28;20035;-26
2023/10/20 10:16:32;;;;;;;24.15;5.45;;;;;;;24.13;53.61;94656.41;5095286;28;20032;-29
2023/10/20 10:19:08;;;;;;;33.40;5.57;;;;;;;23.88;54.41;94645.97;5095719;28;20020;-28
2023/10/20 10:21:38;;;;;;;25.15;4.97;;;;;;;24.17;53.77;94659.56;5095323;28;20024;-28
2023/10/20 10:24:17;;;;;;;25.10;4.45;;;;;;;24.11;53.98;94673.59;5095711;28;20024;-26
2023/10/20 10:26:53;;;;;;;17.50;4.50;;;;;;;24.08;54.30;94663.66;5095408;28;20024;-27
2023/10/20 10:29:41;;;;;;;26.88;4.50;;;;;;;24.25;53.72;94679.66;5095109;28;20020;-27
2023/10/20 10:32:13;;;;;;;20.30;5.00;;;;;;;24.12;54.41;94691.69;5087937;28;20115;-27
2023/10/20 10:34:46;;;;;;;22.83;4.30;;;;;;;24.23;54.32;94696.84;5102722;28;20084;-27
2023/10/20 10:37:12;;;;;;;32.40;4.93;;;;;;;24.08;54.84;94696.88;5094803;28;20024;-27
2023/10/20 10:39:38;;;;;;;21.63;4.50;;;;;;;24.10;54.74;94699.84;5093758;28;20026;-27
2023/10/20 10:42:05;;;;;;;25.08;5.57;;;;;;;23.95;55.23;94681.22;5095159;28;20383;-27
2023/10/20 10:44:35;;;;;;;28.10;5.50;;;;;;;24.30;54.18;94685.03;5093732;28;20020;-28
2023/10/20 10:47:05;;;;;;;33.42;5.38;;;;;;;24.03;54.99;94688.75;5094863;28;20012;-27
2023/10/20 10:49:32;;;;;;;33.28;6.00;;;;;;;24.24;54.51;94678.19;5094867;28;20092;-27
2023/10/20 10:51:58;;;;;;;25.00;5.50;;;;;;;24.27;54.36;94688.91;5094859;28;20039;-27
2023/10/20 10:54:26;;;;;;;27.48;4.85;;;;;;;24.22;54.38;94697.41;5094893;28;20415;-27
2023/10/20 10:56:52;;;;;;;22.98;5.05;;;;;;;24.27;54.28;94688.91;5095004;28;20031;-27
2023/10/20 10:59:19;;;;;;;23.73;4.38;;;;;;;24.05;54.94;94700.03;5094227;28;20034;-27
2023/10/20 11:01:45;;;;;;;26.08;4.95;;;;;;;24.30;54.11;94703.66;5093333;28;20066;-26
2023/10/20 11:04:11;;;;;;;31.65;5.47;;;;;;;24.19;54.52;94698.50;5094282;28;20416;-27
2023/10/20 11:06:38;;;;;;;22.75;4.22;;;;;;;24.22;54.52;94687.09;5094414;28;20080;-27
2023/10/20 11:09:11;;;;;;;19.25;4.80;;;;;;;24.21;54.57;94704.22;5094700;28;20016;-27
2023/10/20 11:11:39;;;;;;;;;;;;;;;23.99;55.33;94694.66;5095562;28;20028;-29
2023/10/20 11:14:06;;;;;;;32.75;5.30;;;;;;;23.94;55.68;94701.88;5094409;28;19914;-27
2023/10/20 11:16:34;;;;;;;34.88;4.93;;;;;;;24.22;55.36;94697.41;5094482;28;20023;-29
2023/10/20 11:19:01;;;;;;;29.25;4.88;;;;;;;24.00;56.31;94710.00;5094183;28;20473;-28
2023/10/20 11:21:27;;;;;;;33.05;6.38;;;;;;;24.04;56.48;94710.34;5094173;28;20509;-27
2023/10/20 11:23:56;;;;;;;34.30;6.63;;;;;;;23.97;56.79;94703.56;5094427;28;20107;-27
2023/10/20 11:26:24;;;;;;;28.33;6.22;;;;;;;24.05;56.96;94691.72;5094542;28;20034;-28
2023/10/20 11:28:50;;;;;;;27.67;5.40;;;;;;;24.06;56.82;94701.50;5093897;28;20024;-27
2023/10/20 11:31:16;;;;;;;32.78;5.68;;;;;;;24.29;56.28;94691.84;5094016;28;20097;-28
2023/10/20 11:33:42;;;;;;;28.60;5.25;;;;;;;24.32;56.66;94690.75;5093869;28;20468;-27
2023/10/20 11:36:07;;;;;;;26.83;5.93;;;;;;;24.07;57.38;94714.78;5094271;28;20148;-27
2023/10/20 11:38:33;;;;;;;33.97;5.57;;;;;;;24.08;58.30;94696.88;5107212;28;20024;-27
2023/10/20 11:41:00;;;;;;;28.90;6.07;;;;;;;24.30;57.51;94682.25;5094082;28;20348;-28
2023/10/20 11:43:25;;;;;;;33.38;5.65;;;;;;;24.05;58.03;94684.16;5093742;28;20478;-28
2023/10/20 11:45:51;;;;;;;32.95;5.57;;;;;;;24.08;58.53;94701.69;5093539;28;20068;-27
2023/10/20 11:48:17;;;;;;;30.80;5.35;;;;;;;23.96;59.01;94690.25;5093644;28;20074;-28
2023/10/20 11:50:43;;;;;;;33.53;6.32;;;;;;;24.26;58.50;94692.97;5093834;28;20348;-28
2023/10/20 11:53:08;;;;;;;27.52;5.85;;;;;;;24.21;58.87;94674.50;5101045;28;20117;-28
2023/10/20 11:55:34;;;;;;;29.20;7.63;;;;;;;24.43;57.70;94677.78;5093602;28;20027;-29
2023/10/20 11:58:03;;;;;;;37.40;6.68;;;;;;;24.32;58.06;94671.34;5101052;28;20020;-28
2023/10/20 12:00:29;;;;;;;29.20;5.75;;;;;;;24.05;59.50;94678.59;5093492;28;20112;-28